sensor_id;sensor_type;location;lat;lon;timestamp;P1;durP1;ratioP1;P2;durP2;ratioP2
20110;SDS011;10216;42.658;23.248;2023-04-16T00:00:47;0.40;;;0.40;;
20110;SDS011;10216;42.658;23.248;2023-04-16T00:03:13;0.33;;;0.33;;
20110;SDS011;10216;42.658;23.248;2023-04-16T00:05:38;0.40;;;0.40;;
20110;SDS011;10216;42.658;23.248;2023-04-16T00:08:03;0.20;;;0.20;;
20110;SDS011;10216;42.658;23.248;2023-04-16T00:10:29;0.30;;;0.30;;
20110;SDS011;10216;42.658;23.248;2023-04-16T00:12:54;0.30;;;0.30;;
20110;SDS011;10216;42.658;23.248;2023-04-16T00:15:19;2.87;;;1.00;;
20110;SDS011;10216;42.658;23.248;2023-04-16T00:17:48;0.20;;;0.20;;
20110;SDS011;10216;42.658;23.248;2023-04-16T00:20:13;0.40;;;0.40;;
20110;SDS011;10216;42.658;23.248;2023-04-16T00:22:38;0.47;;;0.47;;
20110;SDS011;10216;42.658;23.248;2023-04-16T00:25:03;0.33;;;0.30;;
20110;SDS011;10216;42.658;23.248;2023-04-16T00:27:31;0.40;;;0.40;;
20110;SDS011;10216;42.658;23.248;2023-04-16T00:29:56;0.53;;;0.40;;
20110;SDS011;10216;42.658;23.248;2023-04-16T00:32:22;0.90;;;0.30;;
20110;SDS011;10216;42.658;23.248;2023-04-16T00:34:47;1.27;;;0.40;;
20110;SDS011;10216;42.658;23.248;2023-04-16T00:37:12;0.43;;;0.43;;
20110;SDS011;10216;42.658;23.248;2023-04-16T00:39:37;0.40;;;0.40;;
20110;SDS011;10216;42.658;23.248;2023-04-16T00:42:03;1.43;;;0.50;;
20110;SDS011;10216;42.658;23.248;2023-04-16T00:44:28;0.47;;;0.47;;
20110;SDS011;10216;42.658;23.248;2023-04-16T00:46:54;0.80;;;0.80;;
20110;SDS011;10216;42.658;23.248;2023-04-16T00:49:20;0.30;;;0.30;;
20110;SDS011;10216;42.658;23.248;2023-04-16T00:51:46;1.13;;;0.40;;
20110;SDS011;10216;42.658;23.248;2023-04-16T00:54:12;0.37;;;0.37;;
20110;SDS011;10216;42.658;23.248;2023-04-16T00:56:37;1.47;;;0.50;;
20110;SDS011;10216;42.658;23.248;2023-04-16T00:59:02;0.37;;;0.37;;
20110;SDS011;10216;42.658;23.248;2023-04-16T01:01:28;1.40;;;0.50;;
20110;SDS011;10216;42.658;23.248;2023-04-16T01:03:53;0.40;;;0.40;;
20110;SDS011;10216;42.658;23.248;2023-04-16T01:06:18;0.87;;;0.40;;
20110;SDS011;10216;42.658;23.248;2023-04-16T01:08:45;0.40;;;0.40;;
20110;SDS011;10216;42.658;23.248;2023-04-16T01:11:10;0.23;;;0.23;;
20110;SDS011;10216;42.658;23.248;2023-04-16T01:13:36;0.43;;;0.43;;
20110;SDS011;10216;42.658;23.248;2023-04-16T01:16:07;0.50;;;0.30;;
20110;SDS011;10216;42.658;23.248;2023-04-16T01:18:33;0.40;;;0.40;;
20110;SDS011;10216;42.658;23.248;2023-04-16T01:20:58;0.20;;;0.20;;
20110;SDS011;10216;42.658;23.248;2023-04-16T01:23:24;0.30;;;0.30;;
20110;SDS011;10216;42.658;23.248;2023-04-16T01:25:49;0.30;;;0.30;;
20110;SDS011;10216;42.658;23.248;2023-04-16T01:28:14;0.50;;;0.50;;
20110;SDS011;10216;42.658;23.248;2023-04-16T01:30:40;0.30;;;0.30;;
20110;SDS011;10216;42.658;23.248;2023-04-16T01:33:05;0.63;;;0.30;;
20110;SDS011;10216;42.658;23.248;2023-04-16T01:35:34;0.63;;;0.47;;
20110;SDS011;10216;42.658;23.248;2023-04-16T01:37:59;0.47;;;0.40;;
20110;SDS011;10216;42.658;23.248;2023-04-16T01:40:25;0.60;;;0.27;;
20110;SDS011;10216;42.658;23.248;2023-04-16T01:42:50;0.40;;;0.40;;
20110;SDS011;10216;42.658;23.248;2023-04-16T01:45:15;0.87;;;0.40;;
20110;SDS011;10216;42.658;23.248;2023-04-16T01:47:40;0.30;;;0.30;;
20110;SDS011;10216;42.658;23.248;2023-04-16T01:50:06;0.83;;;0.40;;
20110;SDS011;10216;42.658;23.248;2023-04-16T01:52:32;0.40;;;0.40;;
20110;SDS011;10216;42.658;23.248;2023-04-16T01:54:57;0.30;;;0.30;;
20110;SDS011;10216;42.658;23.248;2023-04-16T01:57:22;0.60;;;0.60;;
20110;SDS011;10216;42.658;23.248;2023-04-16T01:59:48;0.60;;;0.47;;
20110;SDS011;10216;42.658;23.248;2023-04-16T02:02:14;0.30;;;0.30;;
20110;SDS011;10216;42.658;23.248;2023-04-16T02:04:40;0.43;;;0.40;;
20110;SDS011;10216;42.658;23.248;2023-04-16T02:07:06;0.37;;;0.37;;
20110;SDS011;10216;42.658;23.248;2023-04-16T02:09:36;0.43;;;0.43;;
20110;SDS011;10216;42.658;23.248;2023-04-16T02:12:02;0.30;;;0.30;;
20110;SDS011;10216;42.658;23.248;2023-04-16T02:14:27;0.30;;;0.30;;
20110;SDS011;10216;42.658;23.248;2023-04-16T02:16:53;0.73;;;0.43;;
20110;SDS011;10216;42.658;23.248;2023-04-16T02:19:18;0.40;;;0.40;;
20110;SDS011;10216;42.658;23.248;2023-04-16T02:21:43;0.47;;;0.40;;
20110;SDS011;10216;42.658;23.248;2023-04-16T02:24:08;0.30;;;0.30;;
20110;SDS011;10216;42.658;23.248;2023-04-16T02:26:34;0.30;;;0.30;;
20110;SDS011;10216;42.658;23.248;2023-04-16T02:28:59;0.60;;;0.40;;
20110;SDS011;10216;42.658;23.248;2023-04-16T02:31:25;0.60;;;0.40;;
20110;SDS011;10216;42.658;23.248;2023-04-16T02:33:52;0.40;;;0.40;;
20110;SDS011;10216;42.658;23.248;2023-04-16T02:36:17;1.07;;;0.97;;
20110;SDS011;10216;42.658;23.248;2023-04-16T02:38:42;0.90;;;0.90;;
20110;SDS011;10216;42.658;23.248;2023-04-16T02:41:08;0.97;;;0.70;;
20110;SDS011;10216;42.658;23.248;2023-04-16T02:43:33;1.13;;;0.80;;
20110;SDS011;10216;42.658;23.248;2023-04-16T02:45:58;0.60;;;0.60;;
20110;SDS011;10216;42.658;23.248;2023-04-16T02:48:24;0.70;;;0.70;;
20110;SDS011;10216;42.658;23.248;2023-04-16T02:50:49;1.33;;;0.50;;
20110;SDS011;10216;42.658;23.248;2023-04-16T02:53:14;0.43;;;0.40;;
20110;SDS011;10216;42.658;23.248;2023-04-16T02:55:40;0.40;;;0.40;;
20110;SDS011;10216;42.658;23.248;2023-04-16T02:58:05;1.60;;;0.20;;
20110;SDS011;10216;42.658;23.248;2023-04-16T03:00:30;0.50;;;0.50;;
20110;SDS011;10216;42.658;23.248;2023-04-16T03:02:55;0.30;;;0.30;;
20110;SDS011;10216;42.658;23.248;2023-04-16T03:05:21;0.30;;;0.30;;
20110;SDS011;10216;42.658;23.248;2023-04-16T03:07:46;0.87;;;0.40;;
20110;SDS011;10216;42.658;23.248;2023-04-16T03:10:11;0.83;;;0.57;;
20110;SDS011;10216;42.658;23.248;2023-04-16T03:12:37;0.93;;;0.67;;
20110;SDS011;10216;42.658;23.248;2023-04-16T03:15:03;0.60;;;0.60;;
20110;SDS011;10216;42.658;23.248;2023-04-16T03:17:28;0.60;;;0.40;;
20110;SDS011;10216;42.658;23.248;2023-04-16T03:19:53;0.50;;;0.50;;
20110;SDS011;10216;42.658;23.248;2023-04-16T03:22:19;1.03;;;0.70;;
20110;SDS011;10216;42.658;23.248;2023-04-16T03:24:44;0.83;;;0.60;;
20110;SDS011;10216;42.658;23.248;2023-04-16T03:27:10;0.70;;;0.60;;
20110;SDS011;10216;42.658;23.248;2023-04-16T03:29:35;3.80;;;0.80;;
20110;SDS011;10216;42.658;23.248;2023-04-16T03:32:02;0.80;;;0.47;;
20110;SDS011;10216;42.658;23.248;2023-04-16T03:34:27;0.70;;;0.70;;
20110;SDS011;10216;42.658;23.248;2023-04-16T03:36:52;0.50;;;0.50;;
20110;SDS011;10216;42.658;23.248;2023-04-16T03:39:17;1.17;;;0.60;;
20110;SDS011;10216;42.658;23.248;2023-04-16T03:41:43;0.80;;;0.70;;
20110;SDS011;10216;42.658;23.248;2023-04-16T03:44:08;0.40;;;0.40;;
20110;SDS011;10216;42.658;23.248;2023-04-16T03:46:33;2.07;;;0.67;;
20110;SDS011;10216;42.658;23.248;2023-04-16T03:48:58;1.07;;;1.00;;
20110;SDS011;10216;42.658;23.248;2023-04-16T03:51:24;1.37;;;0.50;;
20110;SDS011;10216;42.658;23.248;2023-04-16T03:53:50;1.53;;;0.70;;
20110;SDS011;10216;42.658;23.248;2023-04-16T03:56:15;0.50;;;0.50;;
20110;SDS011;10216;42.658;23.248;2023-04-16T03:58:40;1.03;;;0.80;;
20110;SDS011;10216;42.658;23.248;2023-04-16T04:01:06;1.13;;;0.60;;
20110;SDS011;10216;42.658;23.248;2023-04-16T04:03:31;0.87;;;0.70;;
20110;SDS011;10216;42.658;23.248;2023-04-16T04:05:56;2.73;;;0.80;;
20110;SDS011;10216;42.658;23.248;2023-04-16T04:08:21;4.73;;;0.60;;
20110;SDS011;10216;42.658;23.248;2023-04-16T04:10:46;0.50;;;0.50;;
20110;SDS011;10216;42.658;23.248;2023-04-16T04:13:12;0.90;;;0.80;;
20110;SDS011;10216;42.658;23.248;2023-04-16T04:15:37;0.50;;;0.50;;
20110;SDS011;10216;42.658;23.248;2023-04-16T04:18:02;0.90;;;0.90;;
20110;SDS011;10216;42.658;23.248;2023-04-16T04:20:28;1.37;;;0.50;;
20110;SDS011;10216;42.658;23.248;2023-04-16T04:22:53;0.60;;;0.60;;
20110;SDS011;10216;42.658;23.248;2023-04-16T04:25:18;1.20;;;0.50;;
20110;SDS011;10216;42.658;23.248;2023-04-16T04:27:43;0.80;;;0.47;;
20110;SDS011;10216;42.658;23.248;2023-04-16T04:30:09;2.13;;;1.10;;
20110;SDS011;10216;42.658;23.248;2023-04-16T04:32:34;0.77;;;0.70;;
20110;SDS011;10216;42.658;23.248;2023-04-16T04:35:00;0.43;;;0.43;;
20110;SDS011;10216;42.658;23.248;2023-04-16T04:37:26;0.80;;;0.47;;
20110;SDS011;10216;42.658;23.248;2023-04-16T04:39:51;0.47;;;0.40;;
20110;SDS011;10216;42.658;23.248;2023-04-16T04:42:17;0.33;;;0.33;;
20110;SDS011;10216;42.658;23.248;2023-04-16T04:44:42;0.53;;;0.53;;
20110;SDS011;10216;42.658;23.248;2023-04-16T04:47:08;1.63;;;0.50;;
20110;SDS011;10216;42.658;23.248;2023-04-16T04:49:33;2.00;;;1.00;;
20110;SDS011;10216;42.658;23.248;2023-04-16T04:51:58;2.17;;;1.30;;
20110;SDS011;10216;42.658;23.248;2023-04-16T04:54:25;3.87;;;1.33;;
20110;SDS011;10216;42.658;23.248;2023-04-16T04:56:50;6.13;;;2.30;;
20110;SDS011;10216;42.658;23.248;2023-04-16T04:59:16;4.77;;;1.53;;
20110;SDS011;10216;42.658;23.248;2023-04-16T05:01:42;1.60;;;1.07;;
20110;SDS011;10216;42.658;23.248;2023-04-16T05:04:07;2.27;;;0.60;;
20110;SDS011;10216;42.658;23.248;2023-04-16T05:06:32;1.20;;;0.73;;
20110;SDS011;10216;42.658;23.248;2023-04-16T05:08:57;0.40;;;0.40;;
20110;SDS011;10216;42.658;23.248;2023-04-16T05:11:23;1.23;;;0.80;;
20110;SDS011;10216;42.658;23.248;2023-04-16T05:13:48;1.70;;;0.77;;
20110;SDS011;10216;42.658;23.248;2023-04-16T05:16:14;0.70;;;0.70;;
20110;SDS011;10216;42.658;23.248;2023-04-16T05:18:39;0.60;;;0.60;;
20110;SDS011;10216;42.658;23.248;2023-04-16T05:21:05;0.73;;;0.70;;
20110;SDS011;10216;42.658;23.248;2023-04-16T05:23:30;0.80;;;0.80;;
20110;SDS011;10216;42.658;23.248;2023-04-16T05:25:55;3.23;;;1.33;;
20110;SDS011;10216;42.658;23.248;2023-04-16T05:28:21;7.13;;;3.20;;
20110;SDS011;10216;42.658;23.248;2023-04-16T05:30:46;6.50;;;3.70;;
20110;SDS011;10216;42.658;23.248;2023-04-16T05:33:11;10.63;;;4.30;;
20110;SDS011;10216;42.658;23.248;2023-04-16T05:35:36;3.93;;;2.70;;
20110;SDS011;10216;42.658;23.248;2023-04-16T05:38:02;6.10;;;2.77;;
20110;SDS011;10216;42.658;23.248;2023-04-16T05:40:28;2.83;;;2.20;;
20110;SDS011;10216;42.658;23.248;2023-04-16T05:42:53;3.00;;;1.70;;
20110;SDS011;10216;42.658;23.248;2023-04-16T05:45:18;4.33;;;1.80;;
20110;SDS011;10216;42.658;23.248;2023-04-16T05:47:44;1.57;;;1.30;;
20110;SDS011;10216;42.658;23.248;2023-04-16T05:50:09;2.20;;;1.37;;
20110;SDS011;10216;42.658;23.248;2023-04-16T05:52:35;3.20;;;1.67;;
20110;SDS011;10216;42.658;23.248;2023-04-16T05:55:00;6.20;;;2.70;;
20110;SDS011;10216;42.658;23.248;2023-04-16T05:57:26;2.70;;;1.73;;
20110;SDS011;10216;42.658;23.248;2023-04-16T05:59:51;1.87;;;1.77;;
20110;SDS011;10216;42.658;23.248;2023-04-16T06:02:17;4.27;;;1.53;;
20110;SDS011;10216;42.658;23.248;2023-04-16T06:04:42;3.40;;;2.23;;
20110;SDS011;10216;42.658;23.248;2023-04-16T06:07:08;1.83;;;1.20;;
20110;SDS011;10216;42.658;23.248;2023-04-16T06:09:33;2.77;;;1.80;;
20110;SDS011;10216;42.658;23.248;2023-04-16T06:11:58;1.97;;;1.23;;
20110;SDS011;10216;42.658;23.248;2023-04-16T06:14:24;5.80;;;1.10;;
20110;SDS011;10216;42.658;23.248;2023-04-16T06:16:49;2.33;;;1.23;;
20110;SDS011;10216;42.658;23.248;2023-04-16T06:19:14;1.23;;;1.10;;
20110;SDS011;10216;42.658;23.248;2023-04-16T06:21:40;2.10;;;1.47;;
20110;SDS011;10216;42.658;23.248;2023-04-16T06:24:05;2.00;;;1.20;;
20110;SDS011;10216;42.658;23.248;2023-04-16T06:26:30;2.70;;;1.27;;
20110;SDS011;10216;42.658;23.248;2023-04-16T06:28:56;1.93;;;1.73;;
20110;SDS011;10216;42.658;23.248;2023-04-16T06:31:21;2.67;;;1.60;;
20110;SDS011;10216;42.658;23.248;2023-04-16T06:33:46;3.23;;;2.00;;
20110;SDS011;10216;42.658;23.248;2023-04-16T06:36:11;4.30;;;1.77;;
20110;SDS011;10216;42.658;23.248;2023-04-16T06:38:37;3.37;;;1.90;;
20110;SDS011;10216;42.658;23.248;2023-04-16T06:41:02;1.53;;;1.43;;
20110;SDS011;10216;42.658;23.248;2023-04-16T06:43:27;2.90;;;1.90;;
20110;SDS011;10216;42.658;23.248;2023-04-16T06:45:53;2.23;;;1.33;;
20110;SDS011;10216;42.658;23.248;2023-04-16T06:48:19;3.37;;;1.73;;
20110;SDS011;10216;42.658;23.248;2023-04-16T06:50:44;4.83;;;1.67;;
20110;SDS011;10216;42.658;23.248;2023-04-16T06:53:12;1.80;;;1.40;;
20110;SDS011;10216;42.658;23.248;2023-04-16T06:55:37;1.63;;;1.23;;
20110;SDS011;10216;42.658;23.248;2023-04-16T06:58:02;3.20;;;1.77;;
20110;SDS011;10216;42.658;23.248;2023-04-16T07:00:28;1.37;;;1.10;;
20110;SDS011;10216;42.658;23.248;2023-04-16T07:02:53;3.17;;;1.40;;
20110;SDS011;10216;42.658;23.248;2023-04-16T07:05:18;2.53;;;1.40;;
20110;SDS011;10216;42.658;23.248;2023-04-16T07:07:43;2.57;;;1.77;;
20110;SDS011;10216;42.658;23.248;2023-04-16T07:10:09;2.20;;;1.77;;
20110;SDS011;10216;42.658;23.248;2023-04-16T07:12:34;3.83;;;1.60;;
20110;SDS011;10216;42.658;23.248;2023-04-16T07:14:59;2.20;;;1.83;;
20110;SDS011;10216;42.658;23.248;2023-04-16T07:17:25;1.83;;;1.50;;
20110;SDS011;10216;42.658;23.248;2023-04-16T07:19:50;1.60;;;1.23;;
20110;SDS011;10216;42.658;23.248;2023-04-16T07:22:15;1.40;;;1.30;;
20110;SDS011;10216;42.658;23.248;2023-04-16T07:24:41;2.17;;;1.93;;
20110;SDS011;10216;42.658;23.248;2023-04-16T07:27:06;3.10;;;2.03;;
20110;SDS011;10216;42.658;23.248;2023-04-16T07:29:31;4.47;;;2.30;;
20110;SDS011;10216;42.658;23.248;2023-04-16T07:31:56;2.63;;;1.80;;
20110;SDS011;10216;42.658;23.248;2023-04-16T07:34:22;4.53;;;2.40;;
20110;SDS011;10216;42.658;23.248;2023-04-16T07:36:47;5.07;;;2.03;;
20110;SDS011;10216;42.658;23.248;2023-04-16T07:39:12;3.70;;;2.43;;
20110;SDS011;10216;42.658;23.248;2023-04-16T07:41:37;7.17;;;1.90;;
20110;SDS011;10216;42.658;23.248;2023-04-16T07:44:05;2.17;;;1.97;;
20110;SDS011;10216;42.658;23.248;2023-04-16T07:46:31;2.20;;;1.77;;
20110;SDS011;10216;42.658;23.248;2023-04-16T07:48:56;2.30;;;1.57;;
20110;SDS011;10216;42.658;23.248;2023-04-16T07:51:21;2.43;;;1.73;;
20110;SDS011;10216;42.658;23.248;2023-04-16T07:53:46;4.43;;;1.90;;
20110;SDS011;10216;42.658;23.248;2023-04-16T07:56:12;3.97;;;1.87;;
20110;SDS011;10216;42.658;23.248;2023-04-16T07:58:37;3.07;;;2.37;;
20110;SDS011;10216;42.658;23.248;2023-04-16T08:01:02;3.40;;;1.73;;
20110;SDS011;10216;42.658;23.248;2023-04-16T08:03:27;2.57;;;1.80;;
20110;SDS011;10216;42.658;23.248;2023-04-16T08:05:53;3.47;;;2.40;;
20110;SDS011;10216;42.658;23.248;2023-04-16T08:08:18;5.37;;;2.80;;
20110;SDS011;10216;42.658;23.248;2023-04-16T08:10:43;3.63;;;1.70;;
20110;SDS011;10216;42.658;23.248;2023-04-16T08:13:08;1.57;;;1.33;;
20110;SDS011;10216;42.658;23.248;2023-04-16T08:15:34;2.07;;;1.50;;
20110;SDS011;10216;42.658;23.248;2023-04-16T08:17:59;1.57;;;1.40;;
20110;SDS011;10216;42.658;23.248;2023-04-16T08:20:24;3.40;;;2.37;;
20110;SDS011;10216;42.658;23.248;2023-04-16T08:22:50;2.83;;;1.63;;
20110;SDS011;10216;42.658;23.248;2023-04-16T08:25:17;1.57;;;1.47;;
20110;SDS011;10216;42.658;23.248;2023-04-16T08:27:42;2.03;;;1.60;;
20110;SDS011;10216;42.658;23.248;2023-04-16T08:30:07;2.77;;;1.83;;
20110;SDS011;10216;42.658;23.248;2023-04-16T08:32:32;1.73;;;1.60;;
20110;SDS011;10216;42.658;23.248;2023-04-16T08:34:58;1.30;;;1.20;;
20110;SDS011;10216;42.658;23.248;2023-04-16T08:37:24;2.30;;;1.50;;
20110;SDS011;10216;42.658;23.248;2023-04-16T08:39:49;1.30;;;1.20;;
20110;SDS011;10216;42.658;23.248;2023-04-16T08:42:19;1.70;;;1.20;;
20110;SDS011;10216;42.658;23.248;2023-04-16T08:44:47;1.80;;;1.47;;
20110;SDS011;10216;42.658;23.248;2023-04-16T08:47:13;3.33;;;1.60;;
20110;SDS011;10216;42.658;23.248;2023-04-16T08:49:43;1.97;;;1.03;;
20110;SDS011;10216;42.658;23.248;2023-04-16T08:52:13;1.43;;;0.87;;
20110;SDS011;10216;42.658;23.248;2023-04-16T08:54:51;1.00;;;0.83;;
20110;SDS011;10216;42.658;23.248;2023-04-16T08:57:21;1.53;;;1.43;;
20110;SDS011;10216;42.658;23.248;2023-04-16T08:59:47;0.70;;;0.70;;
20110;SDS011;10216;42.658;23.248;2023-04-16T09:02:12;0.83;;;0.70;;
20110;SDS011;10216;42.658;23.248;2023-04-16T09:04:38;1.40;;;0.90;;
20110;SDS011;10216;42.658;23.248;2023-04-16T09:07:04;0.93;;;0.90;;
20110;SDS011;10216;42.658;23.248;2023-04-16T09:09:32;1.97;;;1.00;;
20110;SDS011;10216;42.658;23.248;2023-04-16T09:11:57;5.27;;;1.00;;
20110;SDS011;10216;42.658;23.248;2023-04-16T09:14:23;1.30;;;0.90;;
20110;SDS011;10216;42.658;23.248;2023-04-16T09:16:49;1.00;;;0.80;;
20110;SDS011;10216;42.658;23.248;2023-04-16T09:19:15;2.43;;;1.20;;
20110;SDS011;10216;42.658;23.248;2023-04-16T09:21:41;1.73;;;1.10;;
20110;SDS011;10216;42.658;23.248;2023-04-16T09:24:07;0.93;;;0.83;;
20110;SDS011;10216;42.658;23.248;2023-04-16T09:26:32;0.90;;;0.87;;
20110;SDS011;10216;42.658;23.248;2023-04-16T09:28:58;1.67;;;1.17;;
20110;SDS011;10216;42.658;23.248;2023-04-16T09:31:23;0.73;;;0.73;;
20110;SDS011;10216;42.658;23.248;2023-04-16T09:34:21;1.50;;;0.90;;
20110;SDS011;10216;42.658;23.248;2023-04-16T09:36:42;2.20;;;0.90;;
20110;SDS011;10216;42.658;23.248;2023-04-16T09:39:08;1.27;;;1.17;;
20110;SDS011;10216;42.658;23.248;2023-04-16T09:41:42;2.53;;;1.60;;
20110;SDS011;10216;42.658;23.248;2023-04-16T09:44:07;2.47;;;1.30;;
20110;SDS011;10216;42.658;23.248;2023-04-16T09:46:34;1.20;;;0.87;;
20110;SDS011;10216;42.658;23.248;2023-04-16T09:51:37;0.70;;;0.70;;
20110;SDS011;10216;42.658;23.248;2023-04-16T09:54:05;0.83;;;0.80;;
20110;SDS011;10216;42.658;23.248;2023-04-16T09:56:31;0.60;;;0.60;;
20110;SDS011;10216;42.658;23.248;2023-04-16T09:58:58;1.50;;;1.40;;
20110;SDS011;10216;42.658;23.248;2023-04-16T10:01:23;1.57;;;0.87;;
20110;SDS011;10216;42.658;23.248;2023-04-16T10:03:49;0.77;;;0.50;;
20110;SDS011;10216;42.658;23.248;2023-04-16T10:06:16;0.60;;;0.60;;
20110;SDS011;10216;42.658;23.248;2023-04-16T10:08:42;0.60;;;0.60;;
20110;SDS011;10216;42.658;23.248;2023-04-16T10:11:08;0.50;;;0.50;;
20110;SDS011;10216;42.658;23.248;2023-04-16T10:13:33;0.80;;;0.80;;
20110;SDS011;10216;42.658;23.248;2023-04-16T10:15:59;1.07;;;0.70;;
20110;SDS011;10216;42.658;23.248;2023-04-16T10:18:24;1.20;;;0.50;;
20110;SDS011;10216;42.658;23.248;2023-04-16T10:20:49;2.33;;;0.90;;
20110;SDS011;10216;42.658;23.248;2023-04-16T10:23:15;0.60;;;0.60;;
20110;SDS011;10216;42.658;23.248;2023-04-16T10:25:41;0.53;;;0.50;;
20110;SDS011;10216;42.658;23.248;2023-04-16T10:28:07;2.17;;;1.60;;
20110;SDS011;10216;42.658;23.248;2023-04-16T10:30:33;1.27;;;1.10;;
20110;SDS011;10216;42.658;23.248;2023-04-16T10:32:58;1.03;;;0.50;;
20110;SDS011;10216;42.658;23.248;2023-04-16T10:35:24;0.83;;;0.50;;
20110;SDS011;10216;42.658;23.248;2023-04-16T10:37:54;0.50;;;0.50;;
20110;SDS011;10216;42.658;23.248;2023-04-16T10:40:23;0.70;;;0.63;;
20110;SDS011;10216;42.658;23.248;2023-04-16T10:42:58;1.47;;;0.50;;
20110;SDS011;10216;42.658;23.248;2023-04-16T10:45:36;0.70;;;0.60;;
20110;SDS011;10216;42.658;23.248;2023-04-16T10:48:05;0.60;;;0.60;;
20110;SDS011;10216;42.658;23.248;2023-04-16T10:50:39;0.90;;;0.70;;
20110;SDS011;10216;42.658;23.248;2023-04-16T10:53:18;1.33;;;0.80;;
20110;SDS011;10216;42.658;23.248;2023-04-16T10:58:32;0.60;;;0.60;;
20110;SDS011;10216;42.658;23.248;2023-04-16T11:00:58;1.40;;;0.63;;
20110;SDS011;10216;42.658;23.248;2023-04-16T11:03:24;1.10;;;0.63;;
20110;SDS011;10216;42.658;23.248;2023-04-16T11:05:50;0.77;;;0.70;;
20110;SDS011;10216;42.658;23.248;2023-04-16T11:08:15;0.93;;;0.70;;
20110;SDS011;10216;42.658;23.248;2023-04-16T11:10:41;0.70;;;0.70;;
20110;SDS011;10216;42.658;23.248;2023-04-16T11:13:06;1.73;;;1.07;;
20110;SDS011;10216;42.658;23.248;2023-04-16T11:15:33;1.47;;;0.60;;
20110;SDS011;10216;42.658;23.248;2023-04-16T11:17:58;0.50;;;0.50;;
20110;SDS011;10216;42.658;23.248;2023-04-16T11:20:24;1.30;;;0.90;;
20110;SDS011;10216;42.658;23.248;2023-04-16T11:22:50;1.50;;;0.77;;
20110;SDS011;10216;42.658;23.248;2023-04-16T11:25:23;0.50;;;0.50;;
20110;SDS011;10216;42.658;23.248;2023-04-16T11:27:48;0.70;;;0.60;;
20110;SDS011;10216;42.658;23.248;2023-04-16T11:30:13;0.80;;;0.80;;
20110;SDS011;10216;42.658;23.248;2023-04-16T11:32:39;0.80;;;0.80;;
20110;SDS011;10216;42.658;23.248;2023-04-16T11:35:14;0.83;;;0.83;;
20110;SDS011;10216;42.658;23.248;2023-04-16T11:37:40;0.67;;;0.67;;
20110;SDS011;10216;42.658;23.248;2023-04-16T11:40:08;1.83;;;1.60;;
20110;SDS011;10216;42.658;23.248;2023-04-16T11:42:34;2.20;;;1.33;;
20110;SDS011;10216;42.658;23.248;2023-04-16T11:45:04;1.70;;;0.70;;
20110;SDS011;10216;42.658;23.248;2023-04-16T11:47:30;1.17;;;0.83;;
20110;SDS011;10216;42.658;23.248;2023-04-16T11:49:56;1.03;;;0.80;;
20110;SDS011;10216;42.658;23.248;2023-04-16T11:52:31;3.20;;;1.87;;
20110;SDS011;10216;42.658;23.248;2023-04-16T11:54:56;1.37;;;0.90;;
20110;SDS011;10216;42.658;23.248;2023-04-16T11:57:28;0.50;;;0.50;;
20110;SDS011;10216;42.658;23.248;2023-04-16T11:59:54;0.70;;;0.70;;
20110;SDS011;10216;42.658;23.248;2023-04-16T12:02:36;7.60;;;3.67;;
20110;SDS011;10216;42.658;23.248;2023-04-16T12:05:02;2.30;;;1.90;;
20110;SDS011;10216;42.658;23.248;2023-04-16T12:07:28;1.90;;;0.93;;
20110;SDS011;10216;42.658;23.248;2023-04-16T12:10:03;1.10;;;0.73;;
20110;SDS011;10216;42.658;23.248;2023-04-16T12:12:30;1.43;;;1.00;;
20110;SDS011;10216;42.658;23.248;2023-04-16T12:14:56;1.00;;;0.67;;
20110;SDS011;10216;42.658;23.248;2023-04-16T12:17:23;2.57;;;1.57;;
20110;SDS011;10216;42.658;23.248;2023-04-16T12:19:54;1.40;;;1.20;;
20110;SDS011;10216;42.658;23.248;2023-04-16T12:22:30;0.80;;;0.80;;
20110;SDS011;10216;42.658;23.248;2023-04-16T12:24:58;1.97;;;0.90;;
20110;SDS011;10216;42.658;23.248;2023-04-16T12:27:23;0.97;;;0.90;;
20110;SDS011;10216;42.658;23.248;2023-04-16T12:30:04;0.60;;;0.60;;
20110;SDS011;10216;42.658;23.248;2023-04-16T12:32:31;0.67;;;0.67;;
20110;SDS011;10216;42.658;23.248;2023-04-16T12:34:56;1.40;;;0.87;;
20110;SDS011;10216;42.658;23.248;2023-04-16T12:37:21;1.40;;;1.23;;
20110;SDS011;10216;42.658;23.248;2023-04-16T12:39:47;1.23;;;0.70;;
20110;SDS011;10216;42.658;23.248;2023-04-16T12:42:12;0.50;;;0.50;;
20110;SDS011;10216;42.658;23.248;2023-04-16T12:44:38;0.77;;;0.77;;
20110;SDS011;10216;42.658;23.248;2023-04-16T12:47:03;0.77;;;0.67;;
20110;SDS011;10216;42.658;23.248;2023-04-16T12:49:29;1.70;;;1.30;;
20110;SDS011;10216;42.658;23.248;2023-04-16T12:51:54;0.73;;;0.50;;
20110;SDS011;10216;42.658;23.248;2023-04-16T12:54:20;1.20;;;0.53;;
20110;SDS011;10216;42.658;23.248;2023-04-16T12:56:47;0.50;;;0.50;;
20110;SDS011;10216;42.658;23.248;2023-04-16T12:59:12;0.57;;;0.57;;
20110;SDS011;10216;42.658;23.248;2023-04-16T13:01:38;0.33;;;0.30;;
20110;SDS011;10216;42.658;23.248;2023-04-16T13:04:03;0.33;;;0.33;;
20110;SDS011;10216;42.658;23.248;2023-04-16T13:06:29;0.60;;;0.53;;
20110;SDS011;10216;42.658;23.248;2023-04-16T13:08:57;0.70;;;0.60;;
20110;SDS011;10216;42.658;23.248;2023-04-16T13:11:22;1.33;;;0.80;;
20110;SDS011;10216;42.658;23.248;2023-04-16T13:13:48;0.73;;;0.43;;
20110;SDS011;10216;42.658;23.248;2023-04-16T13:16:13;1.93;;;0.70;;
20110;SDS011;10216;42.658;23.248;2023-04-16T13:18:38;1.33;;;0.70;;
20110;SDS011;10216;42.658;23.248;2023-04-16T13:21:05;0.90;;;0.57;;
20110;SDS011;10216;42.658;23.248;2023-04-16T13:23:30;0.90;;;0.80;;
20110;SDS011;10216;42.658;23.248;2023-04-16T13:25:55;1.60;;;0.57;;
20110;SDS011;10216;42.658;23.248;2023-04-16T13:28:21;1.47;;;0.80;;
20110;SDS011;10216;42.658;23.248;2023-04-16T13:30:46;0.70;;;0.60;;
20110;SDS011;10216;42.658;23.248;2023-04-16T13:33:11;0.90;;;0.60;;
20110;SDS011;10216;42.658;23.248;2023-04-16T13:35:36;1.27;;;0.90;;
20110;SDS011;10216;42.658;23.248;2023-04-16T13:38:03;0.60;;;0.57;;
20110;SDS011;10216;42.658;23.248;2023-04-16T13:40:28;1.03;;;0.73;;
20110;SDS011;10216;42.658;23.248;2023-04-16T13:42:56;2.00;;;0.83;;
20110;SDS011;10216;42.658;23.248;2023-04-16T13:45:21;1.30;;;0.50;;
20110;SDS011;10216;42.658;23.248;2023-04-16T13:47:46;0.60;;;0.60;;
20110;SDS011;10216;42.658;23.248;2023-04-16T13:50:12;0.50;;;0.50;;
20110;SDS011;10216;42.658;23.248;2023-04-16T13:52:39;0.93;;;0.93;;
20110;SDS011;10216;42.658;23.248;2023-04-16T13:55:05;0.80;;;0.80;;
20110;SDS011;10216;42.658;23.248;2023-04-16T13:57:30;1.10;;;0.80;;
20110;SDS011;10216;42.658;23.248;2023-04-16T13:59:56;2.50;;;1.20;;
20110;SDS011;10216;42.658;23.248;2023-04-16T14:02:21;1.53;;;0.90;;
20110;SDS011;10216;42.658;23.248;2023-04-16T14:04:46;0.70;;;0.70;;
20110;SDS011;10216;42.658;23.248;2023-04-16T14:07:11;0.57;;;0.57;;
20110;SDS011;10216;42.658;23.248;2023-04-16T14:09:37;1.13;;;0.90;;
20110;SDS011;10216;42.658;23.248;2023-04-16T14:12:02;0.80;;;0.70;;
20110;SDS011;10216;42.658;23.248;2023-04-16T14:14:27;1.43;;;0.87;;
20110;SDS011;10216;42.658;23.248;2023-04-16T14:16:53;1.00;;;0.80;;
20110;SDS011;10216;42.658;23.248;2023-04-16T14:19:18;0.90;;;0.90;;
20110;SDS011;10216;42.658;23.248;2023-04-16T14:21:43;1.80;;;1.40;;
20110;SDS011;10216;42.658;23.248;2023-04-16T14:24:09;1.50;;;0.80;;
20110;SDS011;10216;42.658;23.248;2023-04-16T14:26:34;0.80;;;0.80;;
20110;SDS011;10216;42.658;23.248;2023-04-16T14:28:59;1.47;;;1.00;;
20110;SDS011;10216;42.658;23.248;2023-04-16T14:31:25;1.73;;;1.37;;